ALC weather

Alicante International Airport
Alicante, Valencia, Spain

Public forecast

Using degrees Celsius for public forecast. Weather courtesy of forecast.io.

Current aviation weather report (METAR) for Alicante International Airport

Retrieved 2019/10/19 00:30 UTC (12 minutes ago):

LEAL 190030Z 34001KT CAVOK 16/14 Q1013 NOSIG

Aviation forecast (TAF) for Alicante International Airport

Retrieved 2019-10-19 00:27 UTC (15 minutes ago):

TAF TAF LEAL 182300Z 1900/1924 27005KT 9999 FEW025 TX26/1912Z TN15/1906Z BECMG 1910/1912 17010KT BECMG 1918/1920 VRB03KT